sensor_id;sensor_type;location;lat;lon;timestamp;P1;durP1;ratioP1;P2;durP2;ratioP2
68089;SDS011;54880;50.986;6.990;2023-01-15T00:01:56;4.60;;;0.63;;
68089;SDS011;54880;50.986;6.990;2023-01-15T00:04:22;4.55;;;0.52;;
68089;SDS011;54880;50.986;6.990;2023-01-15T00:06:47;5.20;;;0.80;;
68089;SDS011;54880;50.986;6.990;2023-01-15T00:09:13;2.60;;;0.70;;
68089;SDS011;54880;50.986;6.990;2023-01-15T00:11:39;3.27;;;0.50;;
68089;SDS011;54880;50.986;6.990;2023-01-15T00:14:04;4.57;;;0.60;;
68089;SDS011;54880;50.986;6.990;2023-01-15T00:16:29;3.22;;;0.70;;
68089;SDS011;54880;50.986;6.990;2023-01-15T00:18:56;3.20;;;0.70;;
68089;SDS011;54880;50.986;6.990;2023-01-15T00:21:22;3.20;;;0.80;;
68089;SDS011;54880;50.986;6.990;2023-01-15T00:23:47;4.30;;;0.70;;
68089;SDS011;54880;50.986;6.990;2023-01-15T00:26:32;6.03;;;0.73;;
68089;SDS011;54880;50.986;6.990;2023-01-15T00:29:17;4.25;;;0.70;;
68089;SDS011;54880;50.986;6.990;2023-01-15T00:31:43;4.47;;;0.70;;
68089;SDS011;54880;50.986;6.990;2023-01-15T00:34:09;3.88;;;0.70;;
68089;SDS011;54880;50.986;6.990;2023-01-15T00:36:34;3.70;;;0.63;;
68089;SDS011;54880;50.986;6.990;2023-01-15T00:39:01;4.25;;;0.90;;
68089;SDS011;54880;50.986;6.990;2023-01-15T00:41:27;3.30;;;0.70;;
68089;SDS011;54880;50.986;6.990;2023-01-15T00:43:52;3.23;;;0.67;;
68089;SDS011;54880;50.986;6.990;2023-01-15T00:46:18;3.00;;;0.63;;
68089;SDS011;54880;50.986;6.990;2023-01-15T00:48:43;3.42;;;0.70;;
68089;SDS011;54880;50.986;6.990;2023-01-15T00:51:09;6.27;;;0.70;;
68089;SDS011;54880;50.986;6.990;2023-01-15T00:53:34;3.93;;;0.97;;
68089;SDS011;54880;50.986;6.990;2023-01-15T00:55:59;3.93;;;0.80;;
68089;SDS011;54880;50.986;6.990;2023-01-15T00:58:26;3.25;;;0.70;;
68089;SDS011;54880;50.986;6.990;2023-01-15T01:00:56;3.63;;;0.73;;
68089;SDS011;54880;50.986;6.990;2023-01-15T01:03:21;5.40;;;0.80;;
68089;SDS011;54880;50.986;6.990;2023-01-15T01:05:46;4.87;;;0.80;;
68089;SDS011;54880;50.986;6.990;2023-01-15T01:08:12;4.47;;;1.13;;
68089;SDS011;54880;50.986;6.990;2023-01-15T01:10:38;4.57;;;0.90;;
68089;SDS011;54880;50.986;6.990;2023-01-15T01:13:03;5.65;;;0.88;;
68089;SDS011;54880;50.986;6.990;2023-01-15T01:15:29;4.17;;;0.70;;
68089;SDS011;54880;50.986;6.990;2023-01-15T01:17:57;3.83;;;0.90;;
68089;SDS011;54880;50.986;6.990;2023-01-15T01:20:22;3.23;;;0.70;;
68089;SDS011;54880;50.986;6.990;2023-01-15T01:22:47;6.43;;;1.00;;
68089;SDS011;54880;50.986;6.990;2023-01-15T01:25:13;5.50;;;0.90;;
68089;SDS011;54880;50.986;6.990;2023-01-15T01:27:38;3.97;;;1.10;;
68089;SDS011;54880;50.986;6.990;2023-01-15T01:30:04;3.33;;;0.80;;
68089;SDS011;54880;50.986;6.990;2023-01-15T01:32:31;3.63;;;0.90;;
68089;SDS011;54880;50.986;6.990;2023-01-15T01:34:56;4.60;;;0.90;;
68089;SDS011;54880;50.986;6.990;2023-01-15T01:37:22;5.17;;;1.30;;
68089;SDS011;54880;50.986;6.990;2023-01-15T01:39:47;4.67;;;0.80;;
68089;SDS011;54880;50.986;6.990;2023-01-15T01:42:14;6.87;;;0.90;;
68089;SDS011;54880;50.986;6.990;2023-01-15T01:47:15;4.80;;;0.80;;
68089;SDS011;54880;50.986;6.990;2023-01-15T01:49:42;4.70;;;0.98;;
68089;SDS011;54880;50.986;6.990;2023-01-15T01:52:16;4.53;;;0.70;;
68089;SDS011;54880;50.986;6.990;2023-01-15T01:54:42;4.30;;;0.77;;
68089;SDS011;54880;50.986;6.990;2023-01-15T01:57:09;4.95;;;0.88;;
68089;SDS011;54880;50.986;6.990;2023-01-15T01:59:34;3.03;;;0.65;;
68089;SDS011;54880;50.986;6.990;2023-01-15T02:02:01;5.90;;;0.90;;
68089;SDS011;54880;50.986;6.990;2023-01-15T02:04:27;4.63;;;0.85;;
68089;SDS011;54880;50.986;6.990;2023-01-15T02:06:53;5.60;;;1.23;;
68089;SDS011;54880;50.986;6.990;2023-01-15T02:09:19;5.07;;;0.90;;
68089;SDS011;54880;50.986;6.990;2023-01-15T02:11:44;3.63;;;0.90;;
68089;SDS011;54880;50.986;6.990;2023-01-15T02:14:11;6.87;;;0.90;;
68089;SDS011;54880;50.986;6.990;2023-01-15T02:16:46;6.25;;;0.70;;
68089;SDS011;54880;50.986;6.990;2023-01-15T02:19:21;3.35;;;0.82;;
68089;SDS011;54880;50.986;6.990;2023-01-15T02:27:01;5.18;;;0.82;;
68089;SDS011;54880;50.986;6.990;2023-01-15T02:29:35;5.28;;;0.80;;
68089;SDS011;54880;50.986;6.990;2023-01-15T02:32:06;5.00;;;0.93;;
68089;SDS011;54880;50.986;6.990;2023-01-15T02:34:32;4.47;;;0.77;;
68089;SDS011;54880;50.986;6.990;2023-01-15T02:37:02;5.07;;;0.80;;
68089;SDS011;54880;50.986;6.990;2023-01-15T02:39:30;3.58;;;0.70;;
68089;SDS011;54880;50.986;6.990;2023-01-15T02:41:58;2.85;;;0.60;;
68089;SDS011;54880;50.986;6.990;2023-01-15T02:44:28;4.10;;;0.85;;
68089;SDS011;54880;50.986;6.990;2023-01-15T02:46:55;4.07;;;0.60;;
68089;SDS011;54880;50.986;6.990;2023-01-15T02:49:23;3.63;;;0.80;;
68089;SDS011;54880;50.986;6.990;2023-01-15T02:51:54;3.05;;;0.52;;
68089;SDS011;54880;50.986;6.990;2023-01-15T02:54:22;2.95;;;0.68;;
68089;SDS011;54880;50.986;6.990;2023-01-15T02:56:49;2.88;;;0.68;;
68089;SDS011;54880;50.986;6.990;2023-01-15T02:59:26;4.13;;;0.67;;
68089;SDS011;54880;50.986;6.990;2023-01-15T03:01:55;3.67;;;0.45;;
68089;SDS011;54880;50.986;6.990;2023-01-15T03:04:24;3.00;;;0.70;;
68089;SDS011;54880;50.986;6.990;2023-01-15T03:06:54;3.10;;;0.60;;
68089;SDS011;54880;50.986;6.990;2023-01-15T03:09:21;3.90;;;0.82;;
68089;SDS011;54880;50.986;6.990;2023-01-15T03:11:56;2.27;;;0.50;;
68089;SDS011;54880;50.986;6.990;2023-01-15T03:14:28;4.28;;;0.65;;
68089;SDS011;54880;50.986;6.990;2023-01-15T03:16:58;6.78;;;0.90;;
68089;SDS011;54880;50.986;6.990;2023-01-15T03:27:02;4.03;;;0.80;;
68089;SDS011;54880;50.986;6.990;2023-01-15T03:29:29;5.38;;;1.00;;
68089;SDS011;54880;50.986;6.990;2023-01-15T03:31:57;4.53;;;0.80;;
68089;SDS011;54880;50.986;6.990;2023-01-15T03:34:27;5.03;;;0.73;;
68089;SDS011;54880;50.986;6.990;2023-01-15T03:36:56;6.10;;;0.73;;
68089;SDS011;54880;50.986;6.990;2023-01-15T03:39:22;2.88;;;0.60;;
68089;SDS011;54880;50.986;6.990;2023-01-15T03:42:02;2.95;;;0.52;;
68089;SDS011;54880;50.986;6.990;2023-01-15T03:44:32;4.03;;;0.70;;
68089;SDS011;54880;50.986;6.990;2023-01-15T03:52:15;4.32;;;0.73;;
68089;SDS011;54880;50.986;6.990;2023-01-15T03:54:47;5.00;;;1.15;;
68089;SDS011;54880;50.986;6.990;2023-01-15T03:57:17;5.70;;;0.80;;
68089;SDS011;54880;50.986;6.990;2023-01-15T03:59:48;4.25;;;0.70;;
68089;SDS011;54880;50.986;6.990;2023-01-15T04:02:15;4.67;;;0.80;;
68089;SDS011;54880;50.986;6.990;2023-01-15T04:04:42;6.05;;;0.82;;
68089;SDS011;54880;50.986;6.990;2023-01-15T04:07:08;6.13;;;0.80;;
68089;SDS011;54880;50.986;6.990;2023-01-15T04:09:37;2.93;;;0.43;;
68089;SDS011;54880;50.986;6.990;2023-01-15T04:12:05;3.40;;;0.60;;
68089;SDS011;54880;50.986;6.990;2023-01-15T04:14:36;7.13;;;0.80;;
68089;SDS011;54880;50.986;6.990;2023-01-15T04:17:06;5.50;;;0.70;;
68089;SDS011;54880;50.986;6.990;2023-01-15T04:19:31;3.23;;;0.63;;
68089;SDS011;54880;50.986;6.990;2023-01-15T04:21:59;4.60;;;0.80;;
68089;SDS011;54880;50.986;6.990;2023-01-15T04:24:25;8.88;;;0.98;;
68089;SDS011;54880;50.986;6.990;2023-01-15T04:26:50;3.60;;;0.70;;
68089;SDS011;54880;50.986;6.990;2023-01-15T04:29:15;2.57;;;0.60;;
68089;SDS011;54880;50.986;6.990;2023-01-15T04:31:40;3.47;;;0.60;;
68089;SDS011;54880;50.986;6.990;2023-01-15T04:34:06;7.17;;;0.80;;
68089;SDS011;54880;50.986;6.990;2023-01-15T04:36:31;5.47;;;0.97;;
68089;SDS011;54880;50.986;6.990;2023-01-15T04:38:59;5.00;;;0.97;;
68089;SDS011;54880;50.986;6.990;2023-01-15T04:41:25;5.03;;;0.82;;
68089;SDS011;54880;50.986;6.990;2023-01-15T04:44:09;5.05;;;1.00;;
68089;SDS011;54880;50.986;6.990;2023-01-15T04:46:38;9.03;;;1.00;;
68089;SDS011;54880;50.986;6.990;2023-01-15T04:49:04;8.53;;;1.20;;
68089;SDS011;54880;50.986;6.990;2023-01-15T04:51:29;5.47;;;0.95;;
68089;SDS011;54880;50.986;6.990;2023-01-15T04:53:55;3.60;;;0.97;;
68089;SDS011;54880;50.986;6.990;2023-01-15T04:56:20;4.63;;;0.70;;
68089;SDS011;54880;50.986;6.990;2023-01-15T04:58:45;4.43;;;0.87;;
68089;SDS011;54880;50.986;6.990;2023-01-15T05:01:11;6.57;;;0.90;;
68089;SDS011;54880;50.986;6.990;2023-01-15T05:03:37;4.30;;;0.90;;
68089;SDS011;54880;50.986;6.990;2023-01-15T05:06:02;7.83;;;0.90;;
68089;SDS011;54880;50.986;6.990;2023-01-15T05:08:28;8.02;;;1.02;;
68089;SDS011;54880;50.986;6.990;2023-01-15T05:10:53;5.23;;;1.03;;
68089;SDS011;54880;50.986;6.990;2023-01-15T05:13:18;8.37;;;1.23;;
68089;SDS011;54880;50.986;6.990;2023-01-15T05:15:43;8.67;;;1.00;;
68089;SDS011;54880;50.986;6.990;2023-01-15T05:18:10;7.63;;;1.07;;
68089;SDS011;54880;50.986;6.990;2023-01-15T05:20:39;4.45;;;0.82;;
68089;SDS011;54880;50.986;6.990;2023-01-15T05:23:04;7.18;;;1.38;;
68089;SDS011;54880;50.986;6.990;2023-01-15T05:25:29;8.17;;;1.07;;
68089;SDS011;54880;50.986;6.990;2023-01-15T05:27:55;9.57;;;0.90;;
68089;SDS011;54880;50.986;6.990;2023-01-15T05:30:20;6.97;;;1.10;;
68089;SDS011;54880;50.986;6.990;2023-01-15T05:32:45;5.63;;;0.73;;
68089;SDS011;54880;50.986;6.990;2023-01-15T05:35:10;7.07;;;1.13;;
68089;SDS011;54880;50.986;6.990;2023-01-15T05:37:35;4.73;;;0.80;;
68089;SDS011;54880;50.986;6.990;2023-01-15T05:40:01;6.17;;;0.80;;
68089;SDS011;54880;50.986;6.990;2023-01-15T05:42:26;9.87;;;1.60;;
68089;SDS011;54880;50.986;6.990;2023-01-15T05:44:51;8.47;;;1.00;;
68089;SDS011;54880;50.986;6.990;2023-01-15T05:47:17;6.30;;;0.90;;
68089;SDS011;54880;50.986;6.990;2023-01-15T05:49:42;8.70;;;1.20;;
68089;SDS011;54880;50.986;6.990;2023-01-15T05:52:07;10.13;;;1.10;;
68089;SDS011;54880;50.986;6.990;2023-01-15T05:54:33;7.53;;;1.17;;
68089;SDS011;54880;50.986;6.990;2023-01-15T05:56:59;5.80;;;1.20;;
68089;SDS011;54880;50.986;6.990;2023-01-15T05:59:26;10.43;;;1.10;;
68089;SDS011;54880;50.986;6.990;2023-01-15T06:01:52;7.82;;;1.10;;
68089;SDS011;54880;50.986;6.990;2023-01-15T06:04:17;3.87;;;0.80;;
68089;SDS011;54880;50.986;6.990;2023-01-15T06:06:45;6.75;;;1.00;;
68089;SDS011;54880;50.986;6.990;2023-01-15T06:09:10;7.35;;;1.00;;
68089;SDS011;54880;50.986;6.990;2023-01-15T06:11:36;4.87;;;0.77;;
68089;SDS011;54880;50.986;6.990;2023-01-15T06:14:01;10.40;;;1.40;;
68089;SDS011;54880;50.986;6.990;2023-01-15T06:16:26;5.30;;;1.00;;
68089;SDS011;54880;50.986;6.990;2023-01-15T06:18:52;7.60;;;1.07;;
68089;SDS011;54880;50.986;6.990;2023-01-15T06:21:17;7.27;;;1.07;;
68089;SDS011;54880;50.986;6.990;2023-01-15T06:23:42;4.97;;;1.00;;
68089;SDS011;54880;50.986;6.990;2023-01-15T06:26:12;7.80;;;0.90;;
68089;SDS011;54880;50.986;6.990;2023-01-15T06:28:37;10.25;;;1.38;;
68089;SDS011;54880;50.986;6.990;2023-01-15T06:31:03;5.50;;;1.07;;
68089;SDS011;54880;50.986;6.990;2023-01-15T06:33:29;6.33;;;1.10;;
68089;SDS011;54880;50.986;6.990;2023-01-15T06:35:54;6.75;;;0.90;;
68089;SDS011;54880;50.986;6.990;2023-01-15T06:38:19;8.60;;;1.17;;
68089;SDS011;54880;50.986;6.990;2023-01-15T06:40:44;8.50;;;1.48;;
68089;SDS011;54880;50.986;6.990;2023-01-15T06:43:10;10.27;;;1.27;;
68089;SDS011;54880;50.986;6.990;2023-01-15T06:45:53;5.00;;;0.70;;
68089;SDS011;54880;50.986;6.990;2023-01-15T06:48:37;8.18;;;0.93;;
68089;SDS011;54880;50.986;6.990;2023-01-15T06:51:02;4.70;;;0.90;;
68089;SDS011;54880;50.986;6.990;2023-01-15T06:53:28;6.53;;;0.80;;
68089;SDS011;54880;50.986;6.990;2023-01-15T06:55:53;8.27;;;1.17;;
68089;SDS011;54880;50.986;6.990;2023-01-15T06:58:18;6.53;;;0.90;;
68089;SDS011;54880;50.986;6.990;2023-01-15T07:00:46;4.07;;;0.90;;
68089;SDS011;54880;50.986;6.990;2023-01-15T07:03:17;7.82;;;1.33;;
68089;SDS011;54880;50.986;6.990;2023-01-15T07:05:43;5.00;;;1.23;;
68089;SDS011;54880;50.986;6.990;2023-01-15T07:08:08;3.73;;;0.70;;
68089;SDS011;54880;50.986;6.990;2023-01-15T07:10:33;4.50;;;0.87;;
68089;SDS011;54880;50.986;6.990;2023-01-15T07:12:59;5.53;;;0.80;;
68089;SDS011;54880;50.986;6.990;2023-01-15T07:15:24;4.77;;;0.80;;
68089;SDS011;54880;50.986;6.990;2023-01-15T07:17:53;5.33;;;0.90;;
68089;SDS011;54880;50.986;6.990;2023-01-15T07:20:18;5.30;;;1.13;;
68089;SDS011;54880;50.986;6.990;2023-01-15T07:22:47;4.70;;;0.68;;
68089;SDS011;54880;50.986;6.990;2023-01-15T07:25:12;3.83;;;0.90;;
68089;SDS011;54880;50.986;6.990;2023-01-15T07:27:37;4.63;;;0.80;;
68089;SDS011;54880;50.986;6.990;2023-01-15T07:30:03;4.03;;;0.70;;
68089;SDS011;54880;50.986;6.990;2023-01-15T07:32:28;5.47;;;0.70;;
68089;SDS011;54880;50.986;6.990;2023-01-15T07:34:53;6.27;;;0.80;;
68089;SDS011;54880;50.986;6.990;2023-01-15T07:37:19;4.53;;;0.63;;
68089;SDS011;54880;50.986;6.990;2023-01-15T07:39:44;3.90;;;0.90;;
68089;SDS011;54880;50.986;6.990;2023-01-15T07:42:09;6.10;;;0.80;;
68089;SDS011;54880;50.986;6.990;2023-01-15T07:44:53;6.88;;;0.70;;
68089;SDS011;54880;50.986;6.990;2023-01-15T07:47:37;3.47;;;0.70;;
68089;SDS011;54880;50.986;6.990;2023-01-15T07:50:22;3.90;;;0.65;;
68089;SDS011;54880;50.986;6.990;2023-01-15T07:52:47;3.58;;;0.70;;
68089;SDS011;54880;50.986;6.990;2023-01-15T07:55:13;5.73;;;0.63;;
68089;SDS011;54880;50.986;6.990;2023-01-15T07:57:39;4.97;;;1.08;;
68089;SDS011;54880;50.986;6.990;2023-01-15T08:00:05;4.80;;;0.90;;
68089;SDS011;54880;50.986;6.990;2023-01-15T08:02:37;3.63;;;0.65;;
68089;SDS011;54880;50.986;6.990;2023-01-15T08:05:02;4.00;;;0.87;;
68089;SDS011;54880;50.986;6.990;2023-01-15T08:07:28;4.75;;;0.63;;
68089;SDS011;54880;50.986;6.990;2023-01-15T08:09:53;6.57;;;0.70;;
68089;SDS011;54880;50.986;6.990;2023-01-15T08:12:18;5.38;;;0.70;;
68089;SDS011;54880;50.986;6.990;2023-01-15T08:15:02;5.75;;;0.85;;
68089;SDS011;54880;50.986;6.990;2023-01-15T08:17:44;5.18;;;0.80;;
68089;SDS011;54880;50.986;6.990;2023-01-15T08:20:14;2.50;;;0.60;;
68089;SDS011;54880;50.986;6.990;2023-01-15T08:22:39;4.10;;;0.80;;
68089;SDS011;54880;50.986;6.990;2023-01-15T08:25:05;3.73;;;0.70;;
68089;SDS011;54880;50.986;6.990;2023-01-15T08:27:31;3.53;;;0.70;;
68089;SDS011;54880;50.986;6.990;2023-01-15T08:29:56;5.73;;;0.57;;
68089;SDS011;54880;50.986;6.990;2023-01-15T08:32:22;3.53;;;0.60;;
68089;SDS011;54880;50.986;6.990;2023-01-15T08:34:47;3.00;;;0.50;;
68089;SDS011;54880;50.986;6.990;2023-01-15T08:37:13;3.90;;;0.70;;
68089;SDS011;54880;50.986;6.990;2023-01-15T08:39:38;2.57;;;0.70;;
68089;SDS011;54880;50.986;6.990;2023-01-15T08:42:03;2.37;;;0.50;;
68089;SDS011;54880;50.986;6.990;2023-01-15T08:44:28;3.00;;;0.50;;
68089;SDS011;54880;50.986;6.990;2023-01-15T08:46:54;3.07;;;0.87;;
68089;SDS011;54880;50.986;6.990;2023-01-15T08:49:19;2.97;;;0.60;;
68089;SDS011;54880;50.986;6.990;2023-01-15T08:51:44;2.10;;;0.50;;
68089;SDS011;54880;50.986;6.990;2023-01-15T08:54:16;3.35;;;0.65;;
68089;SDS011;54880;50.986;6.990;2023-01-15T08:56:42;4.07;;;0.97;;
68089;SDS011;54880;50.986;6.990;2023-01-15T08:59:12;4.13;;;0.52;;
68089;SDS011;54880;50.986;6.990;2023-01-15T09:01:37;2.40;;;0.60;;
68089;SDS011;54880;50.986;6.990;2023-01-15T09:04:03;3.23;;;0.63;;
68089;SDS011;54880;50.986;6.990;2023-01-15T09:06:30;4.15;;;0.82;;
68089;SDS011;54880;50.986;6.990;2023-01-15T09:08:57;3.73;;;0.80;;
68089;SDS011;54880;50.986;6.990;2023-01-15T09:11:22;5.53;;;1.00;;
68089;SDS011;54880;50.986;6.990;2023-01-15T09:13:48;3.10;;;0.70;;
68089;SDS011;54880;50.986;6.990;2023-01-15T09:16:15;4.55;;;1.25;;
68089;SDS011;54880;50.986;6.990;2023-01-15T09:18:41;3.50;;;0.80;;
68089;SDS011;54880;50.986;6.990;2023-01-15T09:21:07;3.85;;;0.90;;
68089;SDS011;54880;50.986;6.990;2023-01-15T09:23:32;4.87;;;1.13;;
68089;SDS011;54880;50.986;6.990;2023-01-15T09:25:59;9.20;;;1.00;;
68089;SDS011;54880;50.986;6.990;2023-01-15T09:28:24;5.43;;;1.20;;
68089;SDS011;54880;50.986;6.990;2023-01-15T09:30:50;5.87;;;0.90;;
68089;SDS011;54880;50.986;6.990;2023-01-15T09:33:15;5.63;;;1.00;;
68089;SDS011;54880;50.986;6.990;2023-01-15T09:35:41;6.13;;;0.90;;
68089;SDS011;54880;50.986;6.990;2023-01-15T09:38:08;5.20;;;1.42;;
68089;SDS011;54880;50.986;6.990;2023-01-15T09:43:19;7.03;;;1.25;;
68089;SDS011;54880;50.986;6.990;2023-01-15T09:46:22;5.10;;;1.27;;
68089;SDS011;54880;50.986;6.990;2023-01-15T09:56:19;6.25;;;1.10;;
68089;SDS011;54880;50.986;6.990;2023-01-15T09:58:45;15.30;;;1.33;;
68089;SDS011;54880;50.986;6.990;2023-01-15T10:01:17;6.25;;;1.33;;
68089;SDS011;54880;50.986;6.990;2023-01-15T10:03:57;6.60;;;1.23;;
68089;SDS011;54880;50.986;6.990;2023-01-15T10:06:27;5.95;;;1.20;;
68089;SDS011;54880;50.986;6.990;2023-01-15T10:09:14;6.07;;;1.30;;
68089;SDS011;54880;50.986;6.990;2023-01-15T10:11:43;7.85;;;1.50;;
68089;SDS011;54880;50.986;6.990;2023-01-15T10:14:30;6.85;;;1.23;;
68089;SDS011;54880;50.986;6.990;2023-01-15T10:17:02;7.30;;;1.10;;
68089;SDS011;54880;50.986;6.990;2023-01-15T10:19:28;9.23;;;1.33;;
68089;SDS011;54880;50.986;6.990;2023-01-15T10:21:56;6.70;;;1.10;;
68089;SDS011;54880;50.986;6.990;2023-01-15T10:26:55;10.63;;;1.40;;
68089;SDS011;54880;50.986;6.990;2023-01-15T10:31:50;9.35;;;1.42;;
68089;SDS011;54880;50.986;6.990;2023-01-15T10:36:43;4.93;;;1.13;;
68089;SDS011;54880;50.986;6.990;2023-01-15T10:46:35;6.63;;;1.10;;
68089;SDS011;54880;50.986;6.990;2023-01-15T10:49:25;6.40;;;1.40;;
68089;SDS011;54880;50.986;6.990;2023-01-15T10:54:30;6.55;;;1.52;;
68089;SDS011;54880;50.986;6.990;2023-01-15T10:56:59;8.63;;;1.20;;
68089;SDS011;54880;50.986;6.990;2023-01-15T11:01:57;9.20;;;1.00;;
68089;SDS011;54880;50.986;6.990;2023-01-15T11:04:23;5.53;;;1.10;;
68089;SDS011;54880;50.986;6.990;2023-01-15T11:06:49;7.43;;;0.82;;
68089;SDS011;54880;50.986;6.990;2023-01-15T11:09:24;6.90;;;1.00;;
68089;SDS011;54880;50.986;6.990;2023-01-15T11:12:11;7.50;;;0.97;;
68089;SDS011;54880;50.986;6.990;2023-01-15T11:14:43;11.57;;;1.70;;
68089;SDS011;54880;50.986;6.990;2023-01-15T11:17:28;5.00;;;1.17;;
68089;SDS011;54880;50.986;6.990;2023-01-15T11:20:29;9.13;;;1.10;;
68089;SDS011;54880;50.986;6.990;2023-01-15T11:22:56;10.45;;;2.15;;
68089;SDS011;54880;50.986;6.990;2023-01-15T11:25:25;5.30;;;0.90;;
68089;SDS011;54880;50.986;6.990;2023-01-15T11:27:51;3.58;;;0.80;;
68089;SDS011;54880;50.986;6.990;2023-01-15T11:30:24;6.37;;;0.90;;
68089;SDS011;54880;50.986;6.990;2023-01-15T11:32:53;5.25;;;0.95;;
68089;SDS011;54880;50.986;6.990;2023-01-15T11:35:19;8.32;;;1.40;;
68089;SDS011;54880;50.986;6.990;2023-01-15T11:37:44;4.97;;;0.90;;
68089;SDS011;54880;50.986;6.990;2023-01-15T11:40:14;4.47;;;0.83;;
68089;SDS011;54880;50.986;6.990;2023-01-15T11:42:44;6.28;;;1.00;;
68089;SDS011;54880;50.986;6.990;2023-01-15T11:45:28;4.88;;;1.10;;
68089;SDS011;54880;50.986;6.990;2023-01-15T11:48:13;5.67;;;0.80;;
68089;SDS011;54880;50.986;6.990;2023-01-15T11:53:33;8.80;;;1.00;;
68089;SDS011;54880;50.986;6.990;2023-01-15T11:56:03;6.95;;;1.25;;
68089;SDS011;54880;50.986;6.990;2023-01-15T11:58:31;4.90;;;0.90;;
68089;SDS011;54880;50.986;6.990;2023-01-15T12:00:57;6.60;;;0.80;;
68089;SDS011;54880;50.986;6.990;2023-01-15T12:03:24;4.93;;;0.80;;
68089;SDS011;54880;50.986;6.990;2023-01-15T12:10:56;8.43;;;2.20;;
68089;SDS011;54880;50.986;6.990;2023-01-15T12:16:15;6.78;;;1.05;;
68089;SDS011;54880;50.986;6.990;2023-01-15T12:26:34;7.00;;;2.47;;
68089;SDS011;54880;50.986;6.990;2023-01-15T12:29:18;5.55;;;1.05;;
68089;SDS011;54880;50.986;6.990;2023-01-15T12:31:46;9.05;;;2.60;;
68089;SDS011;54880;50.986;6.990;2023-01-15T12:34:18;8.30;;;3.08;;
68089;SDS011;54880;50.986;6.990;2023-01-15T12:36:47;8.82;;;3.20;;
68089;SDS011;54880;50.986;6.990;2023-01-15T12:41:51;8.70;;;2.00;;
68089;SDS011;54880;50.986;6.990;2023-01-15T12:44:41;5.90;;;1.80;;
68089;SDS011;54880;50.986;6.990;2023-01-15T12:47:28;5.57;;;1.17;;
68089;SDS011;54880;50.986;6.990;2023-01-15T12:49:57;4.65;;;1.10;;
68089;SDS011;54880;50.986;6.990;2023-01-15T12:52:26;6.43;;;1.20;;
68089;SDS011;54880;50.986;6.990;2023-01-15T12:54:57;5.85;;;1.40;;
68089;SDS011;54880;50.986;6.990;2023-01-15T12:57:39;6.10;;;1.80;;
68089;SDS011;54880;50.986;6.990;2023-01-15T13:00:14;5.78;;;1.40;;
68089;SDS011;54880;50.986;6.990;2023-01-15T13:05:28;6.63;;;1.20;;
68089;SDS011;54880;50.986;6.990;2023-01-15T13:07:58;6.45;;;1.30;;
68089;SDS011;54880;50.986;6.990;2023-01-15T13:10:25;5.63;;;1.00;;
68089;SDS011;54880;50.986;6.990;2023-01-15T13:13:12;8.35;;;1.23;;
68089;SDS011;54880;50.986;6.990;2023-01-15T13:15:38;7.80;;;1.05;;
68089;SDS011;54880;50.986;6.990;2023-01-15T13:18:15;4.03;;;0.93;;
68089;SDS011;54880;50.986;6.990;2023-01-15T13:23:27;8.37;;;1.50;;
68089;SDS011;54880;50.986;6.990;2023-01-15T13:26:09;6.35;;;1.10;;
68089;SDS011;54880;50.986;6.990;2023-01-15T13:31:39;6.00;;;1.40;;
68089;SDS011;54880;50.986;6.990;2023-01-15T13:34:09;6.20;;;2.40;;
68089;SDS011;54880;50.986;6.990;2023-01-15T13:36:38;11.70;;;2.47;;
68089;SDS011;54880;50.986;6.990;2023-01-15T13:39:05;5.20;;;1.92;;
68089;SDS011;54880;50.986;6.990;2023-01-15T13:41:31;6.67;;;1.70;;
68089;SDS011;54880;50.986;6.990;2023-01-15T13:46:41;8.70;;;2.17;;
68089;SDS011;54880;50.986;6.990;2023-01-15T13:49:20;4.70;;;1.33;;
68089;SDS011;54880;50.986;6.990;2023-01-15T13:51:48;6.32;;;1.30;;
68089;SDS011;54880;50.986;6.990;2023-01-15T13:54:17;6.03;;;1.23;;
68089;SDS011;54880;50.986;6.990;2023-01-15T13:56:43;7.28;;;1.10;;
68089;SDS011;54880;50.986;6.990;2023-01-15T14:02:25;7.18;;;1.52;;
68089;SDS011;54880;50.986;6.990;2023-01-15T14:04:50;7.22;;;1.40;;
68089;SDS011;54880;50.986;6.990;2023-01-15T14:07:19;5.80;;;1.20;;
68089;SDS011;54880;50.986;6.990;2023-01-15T14:09:47;7.25;;;1.25;;
68089;SDS011;54880;50.986;6.990;2023-01-15T14:12:24;5.53;;;1.30;;
68089;SDS011;54880;50.986;6.990;2023-01-15T14:17:28;4.40;;;0.80;;
68089;SDS011;54880;50.986;6.990;2023-01-15T14:24:56;6.27;;;0.80;;
68089;SDS011;54880;50.986;6.990;2023-01-15T14:27:41;5.35;;;0.98;;
68089;SDS011;54880;50.986;6.990;2023-01-15T14:32:59;4.20;;;0.77;;
68089;SDS011;54880;50.986;6.990;2023-01-15T14:35:33;4.80;;;0.70;;
68089;SDS011;54880;50.986;6.990;2023-01-15T14:38:02;4.85;;;1.25;;
68089;SDS011;54880;50.986;6.990;2023-01-15T14:40:31;7.00;;;0.90;;
68089;SDS011;54880;50.986;6.990;2023-01-15T14:42:59;6.90;;;1.15;;
68089;SDS011;54880;50.986;6.990;2023-01-15T14:45:27;6.05;;;1.00;;
68089;SDS011;54880;50.986;6.990;2023-01-15T14:47:57;6.20;;;1.10;;
68089;SDS011;54880;50.986;6.990;2023-01-15T14:50:27;5.00;;;1.15;;
68089;SDS011;54880;50.986;6.990;2023-01-15T14:52:58;5.03;;;1.00;;
68089;SDS011;54880;50.986;6.990;2023-01-15T14:55:24;4.93;;;1.15;;
68089;SDS011;54880;50.986;6.990;2023-01-15T14:57:55;6.32;;;1.05;;
68089;SDS011;54880;50.986;6.990;2023-01-15T15:00:21;5.57;;;1.20;;
68089;SDS011;54880;50.986;6.990;2023-01-15T15:02:48;7.55;;;1.00;;
68089;SDS011;54880;50.986;6.990;2023-01-15T15:05:17;6.47;;;1.10;;
68089;SDS011;54880;50.986;6.990;2023-01-15T15:07:43;7.77;;;1.23;;
68089;SDS011;54880;50.986;6.990;2023-01-15T15:15:41;8.32;;;1.20;;
68089;SDS011;54880;50.986;6.990;2023-01-15T15:25:59;5.93;;;1.10;;
68089;SDS011;54880;50.986;6.990;2023-01-15T15:28:25;5.65;;;1.23;;
68089;SDS011;54880;50.986;6.990;2023-01-15T15:30:50;6.03;;;1.60;;
68089;SDS011;54880;50.986;6.990;2023-01-15T15:33:20;5.43;;;1.90;;
68089;SDS011;54880;50.986;6.990;2023-01-15T15:35:49;5.90;;;1.42;;
68089;SDS011;54880;50.986;6.990;2023-01-15T15:38:17;7.65;;;2.08;;
68089;SDS011;54880;50.986;6.990;2023-01-15T15:40:48;4.78;;;1.05;;
68089;SDS011;54880;50.986;6.990;2023-01-15T15:43:15;5.53;;;1.13;;
68089;SDS011;54880;50.986;6.990;2023-01-15T15:46:01;5.88;;;1.15;;
68089;SDS011;54880;50.986;6.990;2023-01-15T15:49:01;6.15;;;1.60;;
68089;SDS011;54880;50.986;6.990;2023-01-15T15:51:43;7.78;;;1.15;;
68089;SDS011;54880;50.986;6.990;2023-01-15T15:54:10;4.88;;;1.10;;
68089;SDS011;54880;50.986;6.990;2023-01-15T15:56:36;6.90;;;1.10;;
68089;SDS011;54880;50.986;6.990;2023-01-15T15:59:01;8.60;;;1.15;;
68089;SDS011;54880;50.986;6.990;2023-01-15T16:01:29;5.63;;;1.45;;
68089;SDS011;54880;50.986;6.990;2023-01-15T16:03:54;6.87;;;1.57;;
68089;SDS011;54880;50.986;6.990;2023-01-15T16:06:21;7.13;;;1.10;;
68089;SDS011;54880;50.986;6.990;2023-01-15T16:08:50;5.18;;;1.40;;
68089;SDS011;54880;50.986;6.990;2023-01-15T16:11:16;6.35;;;1.10;;
68089;SDS011;54880;50.986;6.990;2023-01-15T16:13:45;6.97;;;1.80;;
68089;SDS011;54880;50.986;6.990;2023-01-15T16:16:11;5.97;;;1.60;;
68089;SDS011;54880;50.986;6.990;2023-01-15T16:18:38;10.03;;;1.77;;
68089;SDS011;54880;50.986;6.990;2023-01-15T16:21:08;5.70;;;1.50;;
68089;SDS011;54880;50.986;6.990;2023-01-15T16:23:34;6.03;;;1.00;;
68089;SDS011;54880;50.986;6.990;2023-01-15T16:26:18;5.70;;;1.03;;
68089;SDS011;54880;50.986;6.990;2023-01-15T16:28:49;5.57;;;1.30;;
68089;SDS011;54880;50.986;6.990;2023-01-15T16:31:15;10.75;;;4.18;;
68089;SDS011;54880;50.986;6.990;2023-01-15T16:33:41;9.00;;;3.67;;
68089;SDS011;54880;50.986;6.990;2023-01-15T16:36:06;10.55;;;3.20;;
68089;SDS011;54880;50.986;6.990;2023-01-15T16:38:33;8.93;;;2.70;;
68089;SDS011;54880;50.986;6.990;2023-01-15T16:40:59;8.35;;;1.90;;
68089;SDS011;54880;50.986;6.990;2023-01-15T16:43:25;4.17;;;1.17;;
68089;SDS011;54880;50.986;6.990;2023-01-15T16:50:46;11.60;;;1.60;;
68089;SDS011;54880;50.986;6.990;2023-01-15T16:53:29;5.40;;;1.50;;